sensor_id;sensor_type;location;lat;lon;timestamp;temperature;humidity
3756;DHT22;1893;52.526;13.360;2023-08-06T00:02:19;17.50;99.90
3756;DHT22;1893;52.526;13.360;2023-08-06T00:04:45;17.60;99.90
3756;DHT22;1893;52.526;13.360;2023-08-06T00:07:10;17.50;99.90
3756;DHT22;1893;52.526;13.360;2023-08-06T00:09:36;17.50;99.90
3756;DHT22;1893;52.526;13.360;2023-08-06T00:12:02;17.50;99.90
3756;DHT22;1893;52.526;13.360;2023-08-06T00:14:27;17.50;99.90
3756;DHT22;1893;52.526;13.360;2023-08-06T00:16:53;17.50;99.90
3756;DHT22;1893;52.526;13.360;2023-08-06T00:19:18;17.50;99.90
3756;DHT22;1893;52.526;13.360;2023-08-06T00:21:44;17.50;99.90
3756;DHT22;1893;52.526;13.360;2023-08-06T00:24:10;17.50;99.90
3756;DHT22;1893;52.526;13.360;2023-08-06T00:26:35;17.50;99.90
3756;DHT22;1893;52.526;13.360;2023-08-06T00:29:01;17.50;99.90
3756;DHT22;1893;52.526;13.360;2023-08-06T00:31:26;17.50;99.90
3756;DHT22;1893;52.526;13.360;2023-08-06T00:33:52;17.50;99.90
3756;DHT22;1893;52.526;13.360;2023-08-06T00:36:18;17.40;99.90
3756;DHT22;1893;52.526;13.360;2023-08-06T00:38:43;17.40;99.90
3756;DHT22;1893;52.526;13.360;2023-08-06T00:41:09;17.40;99.90
3756;DHT22;1893;52.526;13.360;2023-08-06T00:43:34;17.40;99.90
3756;DHT22;1893;52.526;13.360;2023-08-06T00:46:00;17.40;99.90
3756;DHT22;1893;52.526;13.360;2023-08-06T00:48:26;17.40;99.90
3756;DHT22;1893;52.526;13.360;2023-08-06T00:50:52;17.40;99.90
3756;DHT22;1893;52.526;13.360;2023-08-06T00:53:18;17.30;99.90
3756;DHT22;1893;52.526;13.360;2023-08-06T00:55:44;17.30;99.90
3756;DHT22;1893;52.526;13.360;2023-08-06T00:58:11;17.30;99.90
3756;DHT22;1893;52.526;13.360;2023-08-06T01:00:37;17.30;99.90
3756;DHT22;1893;52.526;13.360;2023-08-06T01:03:03;17.30;99.90
3756;DHT22;1893;52.526;13.360;2023-08-06T01:05:29;17.20;99.90
3756;DHT22;1893;52.526;13.360;2023-08-06T01:08:12;17.20;99.90
3756;DHT22;1893;52.526;13.360;2023-08-06T01:13:45;17.20;99.90
3756;DHT22;1893;52.526;13.360;2023-08-06T01:16:15;17.20;99.90
3756;DHT22;1893;52.526;13.360;2023-08-06T01:18:41;17.10;99.90
3756;DHT22;1893;52.526;13.360;2023-08-06T01:21:08;17.10;99.90
3756;DHT22;1893;52.526;13.360;2023-08-06T01:23:34;17.10;99.90
3756;DHT22;1893;52.526;13.360;2023-08-06T01:26:27;17.10;99.90
3756;DHT22;1893;52.526;13.360;2023-08-06T01:31:32;17.10;99.90
3756;DHT22;1893;52.526;13.360;2023-08-06T01:34:01;17.10;99.90
3756;DHT22;1893;52.526;13.360;2023-08-06T01:36:28;17.10;99.90
3756;DHT22;1893;52.526;13.360;2023-08-06T01:38:54;17.10;99.90
3756;DHT22;1893;52.526;13.360;2023-08-06T01:41:20;17.00;99.90
3756;DHT22;1893;52.526;13.360;2023-08-06T01:43:45;17.10;99.90
3756;DHT22;1893;52.526;13.360;2023-08-06T01:46:11;17.10;99.90
3756;DHT22;1893;52.526;13.360;2023-08-06T01:48:37;17.10;99.90
3756;DHT22;1893;52.526;13.360;2023-08-06T01:51:06;17.10;99.90
3756;DHT22;1893;52.526;13.360;2023-08-06T01:53:32;17.10;99.90
3756;DHT22;1893;52.526;13.360;2023-08-06T01:55:58;17.00;99.90
3756;DHT22;1893;52.526;13.360;2023-08-06T01:58:24;17.00;99.90
3756;DHT22;1893;52.526;13.360;2023-08-06T02:00:49;17.00;99.90
3756;DHT22;1893;52.526;13.360;2023-08-06T02:03:15;16.90;99.90
3756;DHT22;1893;52.526;13.360;2023-08-06T02:05:41;16.90;99.90
3756;DHT22;1893;52.526;13.360;2023-08-06T02:08:07;16.90;99.90
3756;DHT22;1893;52.526;13.360;2023-08-06T02:10:32;16.90;99.90
3756;DHT22;1893;52.526;13.360;2023-08-06T02:12:58;16.80;99.90
3756;DHT22;1893;52.526;13.360;2023-08-06T02:15:24;16.80;99.90
3756;DHT22;1893;52.526;13.360;2023-08-06T02:17:49;16.80;99.90
3756;DHT22;1893;52.526;13.360;2023-08-06T02:20:15;16.80;99.90
3756;DHT22;1893;52.526;13.360;2023-08-06T02:22:41;16.80;99.90
3756;DHT22;1893;52.526;13.360;2023-08-06T02:25:06;16.70;99.90
3756;DHT22;1893;52.526;13.360;2023-08-06T02:27:32;16.70;99.90
3756;DHT22;1893;52.526;13.360;2023-08-06T02:29:58;16.60;99.90
3756;DHT22;1893;52.526;13.360;2023-08-06T02:32:23;16.70;99.90
3756;DHT22;1893;52.526;13.360;2023-08-06T02:34:49;16.60;99.90
3756;DHT22;1893;52.526;13.360;2023-08-06T02:37:14;16.70;99.90
3756;DHT22;1893;52.526;13.360;2023-08-06T02:39:40;16.70;99.90
3756;DHT22;1893;52.526;13.360;2023-08-06T02:42:09;16.60;99.90
3756;DHT22;1893;52.526;13.360;2023-08-06T02:44:35;16.60;99.90
3756;DHT22;1893;52.526;13.360;2023-08-06T02:47:01;16.70;99.90
3756;DHT22;1893;52.526;13.360;2023-08-06T02:49:27;16.60;99.90
3756;DHT22;1893;52.526;13.360;2023-08-06T02:51:52;16.60;99.90
3756;DHT22;1893;52.526;13.360;2023-08-06T02:54:19;16.60;99.90
3756;DHT22;1893;52.526;13.360;2023-08-06T02:56:45;16.60;99.90
3756;DHT22;1893;52.526;13.360;2023-08-06T02:59:12;16.50;99.90
3756;DHT22;1893;52.526;13.360;2023-08-06T03:01:38;16.60;99.90
3756;DHT22;1893;52.526;13.360;2023-08-06T03:04:04;16.60;99.90
3756;DHT22;1893;52.526;13.360;2023-08-06T03:06:29;16.60;99.90
3756;DHT22;1893;52.526;13.360;2023-08-06T03:08:55;16.60;99.90
3756;DHT22;1893;52.526;13.360;2023-08-06T03:11:21;16.60;99.90
3756;DHT22;1893;52.526;13.360;2023-08-06T03:13:47;16.50;99.90
3756;DHT22;1893;52.526;13.360;2023-08-06T03:16:13;16.50;99.90
3756;DHT22;1893;52.526;13.360;2023-08-06T03:18:39;16.50;99.90
3756;DHT22;1893;52.526;13.360;2023-08-06T03:21:05;16.40;99.90
3756;DHT22;1893;52.526;13.360;2023-08-06T03:23:31;16.40;99.90
3756;DHT22;1893;52.526;13.360;2023-08-06T03:26:00;16.50;99.90
3756;DHT22;1893;52.526;13.360;2023-08-06T03:28:26;16.40;99.90
3756;DHT22;1893;52.526;13.360;2023-08-06T03:30:59;16.40;99.90
3756;DHT22;1893;52.526;13.360;2023-08-06T03:33:25;16.40;99.90
3756;DHT22;1893;52.526;13.360;2023-08-06T03:35:51;16.40;99.90
3756;DHT22;1893;52.526;13.360;2023-08-06T03:38:16;16.40;99.90
3756;DHT22;1893;52.526;13.360;2023-08-06T03:40:42;16.40;99.90
3756;DHT22;1893;52.526;13.360;2023-08-06T03:43:08;16.30;99.90
3756;DHT22;1893;52.526;13.360;2023-08-06T03:45:34;16.40;99.90
3756;DHT22;1893;52.526;13.360;2023-08-06T03:47:59;16.20;99.90
3756;DHT22;1893;52.526;13.360;2023-08-06T03:50:25;16.10;99.90
3756;DHT22;1893;52.526;13.360;2023-08-06T03:52:51;16.10;99.90
3756;DHT22;1893;52.526;13.360;2023-08-06T03:55:16;16.10;99.90
3756;DHT22;1893;52.526;13.360;2023-08-06T03:57:42;16.10;99.90
3756;DHT22;1893;52.526;13.360;2023-08-06T04:00:08;16.00;99.90
3756;DHT22;1893;52.526;13.360;2023-08-06T04:02:33;16.00;99.90
3756;DHT22;1893;52.526;13.360;2023-08-06T04:05:00;15.90;99.90
3756;DHT22;1893;52.526;13.360;2023-08-06T04:07:25;15.90;99.90
3756;DHT22;1893;52.526;13.360;2023-08-06T04:09:58;15.90;99.90
3756;DHT22;1893;52.526;13.360;2023-08-06T04:12:24;15.90;99.90
3756;DHT22;1893;52.526;13.360;2023-08-06T04:14:51;15.90;99.90
3756;DHT22;1893;52.526;13.360;2023-08-06T04:17:20;15.90;99.90
3756;DHT22;1893;52.526;13.360;2023-08-06T04:19:51;15.90;99.90
3756;DHT22;1893;52.526;13.360;2023-08-06T04:22:16;15.90;99.90
3756;DHT22;1893;52.526;13.360;2023-08-06T04:24:42;15.90;99.90
3756;DHT22;1893;52.526;13.360;2023-08-06T04:27:11;15.90;99.90
3756;DHT22;1893;52.526;13.360;2023-08-06T04:29:39;15.90;99.90
3756;DHT22;1893;52.526;13.360;2023-08-06T04:32:07;15.90;99.90
3756;DHT22;1893;52.526;13.360;2023-08-06T04:34:36;15.90;99.90
3756;DHT22;1893;52.526;13.360;2023-08-06T04:37:03;15.80;99.90
3756;DHT22;1893;52.526;13.360;2023-08-06T04:39:29;15.80;99.90
3756;DHT22;1893;52.526;13.360;2023-08-06T04:41:58;15.80;99.90
3756;DHT22;1893;52.526;13.360;2023-08-06T04:44:24;15.80;99.90
3756;DHT22;1893;52.526;13.360;2023-08-06T04:46:50;15.80;99.90
3756;DHT22;1893;52.526;13.360;2023-08-06T04:49:15;15.80;99.90
3756;DHT22;1893;52.526;13.360;2023-08-06T04:51:41;15.80;99.90
3756;DHT22;1893;52.526;13.360;2023-08-06T04:54:06;15.80;99.90
3756;DHT22;1893;52.526;13.360;2023-08-06T04:56:32;15.90;99.90
3756;DHT22;1893;52.526;13.360;2023-08-06T04:58:58;15.80;99.90
3756;DHT22;1893;52.526;13.360;2023-08-06T05:01:24;15.80;99.90
3756;DHT22;1893;52.526;13.360;2023-08-06T05:03:50;15.70;99.90
3756;DHT22;1893;52.526;13.360;2023-08-06T05:06:15;15.70;99.90
3756;DHT22;1893;52.526;13.360;2023-08-06T05:08:41;15.80;99.90
3756;DHT22;1893;52.526;13.360;2023-08-06T05:11:07;15.80;99.90
3756;DHT22;1893;52.526;13.360;2023-08-06T05:13:32;15.80;99.90
3756;DHT22;1893;52.526;13.360;2023-08-06T05:15:58;15.90;99.90
3756;DHT22;1893;52.526;13.360;2023-08-06T05:18:23;15.90;99.90
3756;DHT22;1893;52.526;13.360;2023-08-06T05:20:49;15.80;99.90
3756;DHT22;1893;52.526;13.360;2023-08-06T05:23:15;15.80;99.90
3756;DHT22;1893;52.526;13.360;2023-08-06T05:25:41;15.80;99.90
3756;DHT22;1893;52.526;13.360;2023-08-06T05:28:06;15.90;99.90
3756;DHT22;1893;52.526;13.360;2023-08-06T05:30:32;16.00;99.90
3756;DHT22;1893;52.526;13.360;2023-08-06T05:32:58;16.00;99.90
3756;DHT22;1893;52.526;13.360;2023-08-06T05:35:23;16.00;99.90
3756;DHT22;1893;52.526;13.360;2023-08-06T05:37:53;16.00;99.90
3756;DHT22;1893;52.526;13.360;2023-08-06T05:40:18;16.10;99.90
3756;DHT22;1893;52.526;13.360;2023-08-06T05:42:44;16.10;99.90
3756;DHT22;1893;52.526;13.360;2023-08-06T05:45:10;16.20;99.90
3756;DHT22;1893;52.526;13.360;2023-08-06T05:47:35;16.20;99.90
3756;DHT22;1893;52.526;13.360;2023-08-06T05:50:01;16.20;99.90
3756;DHT22;1893;52.526;13.360;2023-08-06T05:52:26;16.20;99.90
3756;DHT22;1893;52.526;13.360;2023-08-06T05:54:52;16.20;99.90
3756;DHT22;1893;52.526;13.360;2023-08-06T05:57:18;16.20;99.90
3756;DHT22;1893;52.526;13.360;2023-08-06T05:59:43;16.40;99.90
3756;DHT22;1893;52.526;13.360;2023-08-06T06:02:09;16.30;99.90
3756;DHT22;1893;52.526;13.360;2023-08-06T06:04:35;16.30;99.90
3756;DHT22;1893;52.526;13.360;2023-08-06T06:07:00;16.30;99.90
3756;DHT22;1893;52.526;13.360;2023-08-06T06:09:26;16.30;99.90
3756;DHT22;1893;52.526;13.360;2023-08-06T06:11:52;16.20;99.90
3756;DHT22;1893;52.526;13.360;2023-08-06T06:14:18;16.20;99.90
3756;DHT22;1893;52.526;13.360;2023-08-06T06:16:44;16.20;99.90
3756;DHT22;1893;52.526;13.360;2023-08-06T06:19:10;16.30;99.90
3756;DHT22;1893;52.526;13.360;2023-08-06T06:21:35;16.40;99.90
3756;DHT22;1893;52.526;13.360;2023-08-06T06:24:01;16.40;99.90
3756;DHT22;1893;52.526;13.360;2023-08-06T06:26:27;16.30;99.90
3756;DHT22;1893;52.526;13.360;2023-08-06T06:28:53;16.40;99.90
3756;DHT22;1893;52.526;13.360;2023-08-06T06:31:19;16.50;99.90
3756;DHT22;1893;52.526;13.360;2023-08-06T06:33:44;16.50;99.90
3756;DHT22;1893;52.526;13.360;2023-08-06T06:36:10;16.50;99.90
3756;DHT22;1893;52.526;13.360;2023-08-06T06:38:36;16.60;99.90
3756;DHT22;1893;52.526;13.360;2023-08-06T06:41:01;16.60;99.90
3756;DHT22;1893;52.526;13.360;2023-08-06T06:43:28;16.60;99.90
3756;DHT22;1893;52.526;13.360;2023-08-06T06:46:01;16.60;99.90
3756;DHT22;1893;52.526;13.360;2023-08-06T06:48:28;16.70;99.90
3756;DHT22;1893;52.526;13.360;2023-08-06T06:50:54;16.70;99.90
3756;DHT22;1893;52.526;13.360;2023-08-06T06:53:19;16.70;99.90
3756;DHT22;1893;52.526;13.360;2023-08-06T06:55:45;16.80;99.90
3756;DHT22;1893;52.526;13.360;2023-08-06T06:58:15;16.70;99.90
3756;DHT22;1893;52.526;13.360;2023-08-06T07:00:41;16.80;99.90
3756;DHT22;1893;52.526;13.360;2023-08-06T07:03:06;16.80;99.90
3756;DHT22;1893;52.526;13.360;2023-08-06T07:05:32;16.80;99.90
3756;DHT22;1893;52.526;13.360;2023-08-06T07:07:58;16.80;99.90
3756;DHT22;1893;52.526;13.360;2023-08-06T07:10:23;16.80;99.90
3756;DHT22;1893;52.526;13.360;2023-08-06T07:12:49;16.80;99.90
3756;DHT22;1893;52.526;13.360;2023-08-06T07:15:15;16.90;99.90
3756;DHT22;1893;52.526;13.360;2023-08-06T07:17:40;16.90;99.90
3756;DHT22;1893;52.526;13.360;2023-08-06T07:20:06;16.80;99.90
3756;DHT22;1893;52.526;13.360;2023-08-06T07:22:33;16.80;99.90
3756;DHT22;1893;52.526;13.360;2023-08-06T07:24:58;16.80;99.90
3756;DHT22;1893;52.526;13.360;2023-08-06T07:27:25;16.90;99.90
3756;DHT22;1893;52.526;13.360;2023-08-06T07:29:50;17.00;99.90
3756;DHT22;1893;52.526;13.360;2023-08-06T07:32:16;16.90;99.90
3756;DHT22;1893;52.526;13.360;2023-08-06T07:34:42;16.80;99.90
3756;DHT22;1893;52.526;13.360;2023-08-06T07:37:07;16.90;99.90
3756;DHT22;1893;52.526;13.360;2023-08-06T07:39:33;16.80;99.90
3756;DHT22;1893;52.526;13.360;2023-08-06T07:41:58;16.80;99.90
3756;DHT22;1893;52.526;13.360;2023-08-06T07:44:24;16.80;99.90
3756;DHT22;1893;52.526;13.360;2023-08-06T07:46:50;16.80;99.90
3756;DHT22;1893;52.526;13.360;2023-08-06T07:49:15;16.80;99.90
3756;DHT22;1893;52.526;13.360;2023-08-06T07:51:41;16.70;99.90
3756;DHT22;1893;52.526;13.360;2023-08-06T07:54:07;16.70;99.90
3756;DHT22;1893;52.526;13.360;2023-08-06T07:56:32;16.70;99.90
3756;DHT22;1893;52.526;13.360;2023-08-06T07:58:58;16.70;99.90
3756;DHT22;1893;52.526;13.360;2023-08-06T08:01:24;16.70;99.90
3756;DHT22;1893;52.526;13.360;2023-08-06T08:03:49;16.70;99.90
3756;DHT22;1893;52.526;13.360;2023-08-06T08:06:15;16.70;99.90
3756;DHT22;1893;52.526;13.360;2023-08-06T08:08:41;16.80;99.90
3756;DHT22;1893;52.526;13.360;2023-08-06T08:11:06;16.80;99.90
3756;DHT22;1893;52.526;13.360;2023-08-06T08:13:32;16.90;99.90
3756;DHT22;1893;52.526;13.360;2023-08-06T08:15:58;17.00;99.90
3756;DHT22;1893;52.526;13.360;2023-08-06T08:18:24;17.10;99.90
3756;DHT22;1893;52.526;13.360;2023-08-06T08:20:50;17.00;99.90
3756;DHT22;1893;52.526;13.360;2023-08-06T08:23:16;16.90;99.90
3756;DHT22;1893;52.526;13.360;2023-08-06T08:25:41;16.90;99.90
3756;DHT22;1893;52.526;13.360;2023-08-06T08:28:07;17.10;99.90
3756;DHT22;1893;52.526;13.360;2023-08-06T08:30:33;17.20;99.90
3756;DHT22;1893;52.526;13.360;2023-08-06T08:32:58;17.10;99.90
3756;DHT22;1893;52.526;13.360;2023-08-06T08:35:24;17.20;99.90
3756;DHT22;1893;52.526;13.360;2023-08-06T08:37:50;17.30;99.90
3756;DHT22;1893;52.526;13.360;2023-08-06T08:40:16;17.40;99.90
3756;DHT22;1893;52.526;13.360;2023-08-06T08:42:42;17.40;99.90
3756;DHT22;1893;52.526;13.360;2023-08-06T08:45:12;17.40;99.90
3756;DHT22;1893;52.526;13.360;2023-08-06T08:47:42;17.40;99.90
3756;DHT22;1893;52.526;13.360;2023-08-06T08:50:09;17.50;99.90
3756;DHT22;1893;52.526;13.360;2023-08-06T08:52:39;17.60;99.90
3756;DHT22;1893;52.526;13.360;2023-08-06T08:55:12;17.60;99.90
3756;DHT22;1893;52.526;13.360;2023-08-06T08:57:39;17.60;99.90
3756;DHT22;1893;52.526;13.360;2023-08-06T09:00:05;17.60;99.90
3756;DHT22;1893;52.526;13.360;2023-08-06T09:02:32;17.60;99.90
3756;DHT22;1893;52.526;13.360;2023-08-06T09:05:00;17.60;99.90
3756;DHT22;1893;52.526;13.360;2023-08-06T09:07:33;17.70;99.90
3756;DHT22;1893;52.526;13.360;2023-08-06T09:10:02;17.70;99.90
3756;DHT22;1893;52.526;13.360;2023-08-06T09:12:30;17.70;99.90
3756;DHT22;1893;52.526;13.360;2023-08-06T09:14:55;17.80;99.90
3756;DHT22;1893;52.526;13.360;2023-08-06T09:17:21;17.80;99.90
3756;DHT22;1893;52.526;13.360;2023-08-06T09:19:46;17.70;99.90
3756;DHT22;1893;52.526;13.360;2023-08-06T09:22:13;17.70;99.90
3756;DHT22;1893;52.526;13.360;2023-08-06T09:24:42;17.80;99.90
3756;DHT22;1893;52.526;13.360;2023-08-06T09:27:12;17.70;99.90
3756;DHT22;1893;52.526;13.360;2023-08-06T09:29:45;17.60;99.90
3756;DHT22;1893;52.526;13.360;2023-08-06T09:32:12;17.60;99.90
3756;DHT22;1893;52.526;13.360;2023-08-06T09:34:46;17.60;99.90
3756;DHT22;1893;52.526;13.360;2023-08-06T09:37:12;17.40;99.90
3756;DHT22;1893;52.526;13.360;2023-08-06T09:39:39;17.40;99.90
3756;DHT22;1893;52.526;13.360;2023-08-06T09:42:05;17.40;99.90
3756;DHT22;1893;52.526;13.360;2023-08-06T09:44:33;17.40;99.90
3756;DHT22;1893;52.526;13.360;2023-08-06T09:47:01;17.40;99.90
3756;DHT22;1893;52.526;13.360;2023-08-06T09:49:28;17.40;99.90
3756;DHT22;1893;52.526;13.360;2023-08-06T09:51:57;17.40;99.90
3756;DHT22;1893;52.526;13.360;2023-08-06T09:54:26;17.40;99.90
3756;DHT22;1893;52.526;13.360;2023-08-06T09:56:56;17.40;99.90
3756;DHT22;1893;52.526;13.360;2023-08-06T09:59:23;17.50;99.90
3756;DHT22;1893;52.526;13.360;2023-08-06T10:01:49;17.50;99.90
3756;DHT22;1893;52.526;13.360;2023-08-06T10:04:15;17.50;99.90
3756;DHT22;1893;52.526;13.360;2023-08-06T10:06:47;17.50;99.90
3756;DHT22;1893;52.526;13.360;2023-08-06T10:09:13;17.50;99.90
3756;DHT22;1893;52.526;13.360;2023-08-06T10:11:39;17.40;99.90
3756;DHT22;1893;52.526;13.360;2023-08-06T10:14:16;17.30;99.90
3756;DHT22;1893;52.526;13.360;2023-08-06T10:16:44;17.30;99.90
3756;DHT22;1893;52.526;13.360;2023-08-06T10:19:11;17.20;99.90
3756;DHT22;1893;52.526;13.360;2023-08-06T10:21:41;17.20;99.90
3756;DHT22;1893;52.526;13.360;2023-08-06T10:24:09;17.20;99.90
3756;DHT22;1893;52.526;13.360;2023-08-06T10:26:40;17.20;99.90
3756;DHT22;1893;52.526;13.360;2023-08-06T10:29:37;17.30;99.90
3756;DHT22;1893;52.526;13.360;2023-08-06T10:32:03;17.40;99.90
3756;DHT22;1893;52.526;13.360;2023-08-06T10:34:58;17.30;99.90
3756;DHT22;1893;52.526;13.360;2023-08-06T10:37:36;17.20;99.90
3756;DHT22;1893;52.526;13.360;2023-08-06T10:40:03;17.40;99.90
3756;DHT22;1893;52.526;13.360;2023-08-06T10:42:29;17.40;99.90
3756;DHT22;1893;52.526;13.360;2023-08-06T10:45:17;17.30;99.90
3756;DHT22;1893;52.526;13.360;2023-08-06T10:47:43;17.30;99.90
3756;DHT22;1893;52.526;13.360;2023-08-06T10:50:14;17.20;99.90
3756;DHT22;1893;52.526;13.360;2023-08-06T10:52:42;17.30;99.90
3756;DHT22;1893;52.526;13.360;2023-08-06T10:55:08;17.40;99.90
3756;DHT22;1893;52.526;13.360;2023-08-06T10:57:34;17.40;99.90
3756;DHT22;1893;52.526;13.360;2023-08-06T11:00:00;17.30;99.90
3756;DHT22;1893;52.526;13.360;2023-08-06T11:02:26;17.40;99.90
3756;DHT22;1893;52.526;13.360;2023-08-06T11:04:52;17.40;99.90
3756;DHT22;1893;52.526;13.360;2023-08-06T11:07:17;17.40;99.90
3756;DHT22;1893;52.526;13.360;2023-08-06T11:09:43;17.40;99.90
3756;DHT22;1893;52.526;13.360;2023-08-06T11:12:11;17.50;99.90
3756;DHT22;1893;52.526;13.360;2023-08-06T11:14:37;17.60;99.90
3756;DHT22;1893;52.526;13.360;2023-08-06T11:17:05;17.70;99.90
3756;DHT22;1893;52.526;13.360;2023-08-06T11:19:31;17.60;99.90
3756;DHT22;1893;52.526;13.360;2023-08-06T11:21:56;17.60;99.90
3756;DHT22;1893;52.526;13.360;2023-08-06T11:24:24;17.60;99.90
3756;DHT22;1893;52.526;13.360;2023-08-06T11:26:49;17.50;99.90
3756;DHT22;1893;52.526;13.360;2023-08-06T11:29:15;17.70;99.90
3756;DHT22;1893;52.526;13.360;2023-08-06T11:31:41;17.60;99.90
3756;DHT22;1893;52.526;13.360;2023-08-06T11:34:07;17.60;99.90
3756;DHT22;1893;52.526;13.360;2023-08-06T11:36:34;17.70;99.90
3756;DHT22;1893;52.526;13.360;2023-08-06T11:39:02;17.70;99.90
3756;DHT22;1893;52.526;13.360;2023-08-06T11:41:32;17.80;99.90
3756;DHT22;1893;52.526;13.360;2023-08-06T11:44:01;17.70;99.90
3756;DHT22;1893;52.526;13.360;2023-08-06T11:46:26;17.80;99.90
3756;DHT22;1893;52.526;13.360;2023-08-06T11:48:53;17.60;99.90
3756;DHT22;1893;52.526;13.360;2023-08-06T11:51:23;17.60;99.90
3756;DHT22;1893;52.526;13.360;2023-08-06T11:53:49;17.50;99.90
3756;DHT22;1893;52.526;13.360;2023-08-06T11:56:16;17.50;99.90
3756;DHT22;1893;52.526;13.360;2023-08-06T11:58:42;17.50;99.90
3756;DHT22;1893;52.526;13.360;2023-08-06T12:01:07;17.50;99.90
3756;DHT22;1893;52.526;13.360;2023-08-06T12:03:41;17.50;99.90
3756;DHT22;1893;52.526;13.360;2023-08-06T12:06:07;17.40;99.90
3756;DHT22;1893;52.526;13.360;2023-08-06T12:08:33;17.50;99.90
3756;DHT22;1893;52.526;13.360;2023-08-06T12:10:59;17.60;99.90
3756;DHT22;1893;52.526;13.360;2023-08-06T12:13:24;17.60;99.90
3756;DHT22;1893;52.526;13.360;2023-08-06T12:15:50;17.50;99.90
3756;DHT22;1893;52.526;13.360;2023-08-06T12:18:18;17.50;99.90
3756;DHT22;1893;52.526;13.360;2023-08-06T12:20:44;17.50;99.90
3756;DHT22;1893;52.526;13.360;2023-08-06T12:23:09;17.50;99.90
3756;DHT22;1893;52.526;13.360;2023-08-06T12:25:35;17.50;99.90
3756;DHT22;1893;52.526;13.360;2023-08-06T12:28:01;17.40;99.90
3756;DHT22;1893;52.526;13.360;2023-08-06T12:30:26;17.50;99.90
3756;DHT22;1893;52.526;13.360;2023-08-06T12:32:52;17.50;99.90
3756;DHT22;1893;52.526;13.360;2023-08-06T12:35:18;17.40;99.90
3756;DHT22;1893;52.526;13.360;2023-08-06T12:37:43;17.40;99.90
3756;DHT22;1893;52.526;13.360;2023-08-06T12:40:11;17.40;99.90
3756;DHT22;1893;52.526;13.360;2023-08-06T12:42:36;17.40;99.90
3756;DHT22;1893;52.526;13.360;2023-08-06T12:45:02;17.40;99.90
3756;DHT22;1893;52.526;13.360;2023-08-06T12:47:28;17.50;99.90
3756;DHT22;1893;52.526;13.360;2023-08-06T12:49:53;17.40;99.90
3756;DHT22;1893;52.526;13.360;2023-08-06T12:52:19;17.50;99.90
3756;DHT22;1893;52.526;13.360;2023-08-06T12:54:45;17.50;99.90
3756;DHT22;1893;52.526;13.360;2023-08-06T12:57:11;17.50;99.90
3756;DHT22;1893;52.526;13.360;2023-08-06T12:59:37;17.50;99.90
3756;DHT22;1893;52.526;13.360;2023-08-06T13:02:03;17.50;99.90
3756;DHT22;1893;52.526;13.360;2023-08-06T13:04:28;17.30;99.90
3756;DHT22;1893;52.526;13.360;2023-08-06T13:06:54;17.30;99.90
3756;DHT22;1893;52.526;13.360;2023-08-06T13:09:20;17.40;99.90
3756;DHT22;1893;52.526;13.360;2023-08-06T13:11:45;17.40;99.90
3756;DHT22;1893;52.526;13.360;2023-08-06T13:14:13;17.30;99.90
3756;DHT22;1893;52.526;13.360;2023-08-06T13:16:41;17.30;99.90
3756;DHT22;1893;52.526;13.360;2023-08-06T13:19:07;17.20;99.90
3756;DHT22;1893;52.526;13.360;2023-08-06T13:22:20;17.10;99.90
3756;DHT22;1893;52.526;13.360;2023-08-06T13:24:20;17.10;99.90
3756;DHT22;1893;52.526;13.360;2023-08-06T13:26:46;17.10;99.90
3756;DHT22;1893;52.526;13.360;2023-08-06T13:29:12;17.20;99.90
3756;DHT22;1893;52.526;13.360;2023-08-06T13:31:37;17.20;99.90
3756;DHT22;1893;52.526;13.360;2023-08-06T13:34:03;17.20;99.90
3756;DHT22;1893;52.526;13.360;2023-08-06T13:36:30;17.10;99.90
3756;DHT22;1893;52.526;13.360;2023-08-06T13:38:56;17.10;99.90
3756;DHT22;1893;52.526;13.360;2023-08-06T13:41:22;17.10;99.90
3756;DHT22;1893;52.526;13.360;2023-08-06T13:43:48;17.10;99.90
3756;DHT22;1893;52.526;13.360;2023-08-06T13:46:14;17.10;99.90
3756;DHT22;1893;52.526;13.360;2023-08-06T13:48:44;17.20;99.90
3756;DHT22;1893;52.526;13.360;2023-08-06T13:51:11;17.20;99.90
3756;DHT22;1893;52.526;13.360;2023-08-06T13:53:37;17.20;99.90
3756;DHT22;1893;52.526;13.360;2023-08-06T13:56:04;17.30;99.90
3756;DHT22;1893;52.526;13.360;2023-08-06T13:58:30;17.20;99.90
3756;DHT22;1893;52.526;13.360;2023-08-06T14:00:55;17.20;99.90
3756;DHT22;1893;52.526;13.360;2023-08-06T14:03:22;17.20;99.90
3756;DHT22;1893;52.526;13.360;2023-08-06T14:05:48;17.20;99.90
3756;DHT22;1893;52.526;13.360;2023-08-06T14:08:14;17.20;99.90
3756;DHT22;1893;52.526;13.360;2023-08-06T14:10:40;17.10;99.90
3756;DHT22;1893;52.526;13.360;2023-08-06T14:13:05;17.00;99.90
3756;DHT22;1893;52.526;13.360;2023-08-06T14:15:31;17.00;99.90
3756;DHT22;1893;52.526;13.360;2023-08-06T14:17:58;17.00;99.90
3756;DHT22;1893;52.526;13.360;2023-08-06T14:20:24;16.90;99.90
3756;DHT22;1893;52.526;13.360;2023-08-06T14:22:49;17.00;99.90
3756;DHT22;1893;52.526;13.360;2023-08-06T14:25:15;17.00;99.90
3756;DHT22;1893;52.526;13.360;2023-08-06T14:27:41;17.00;99.90
3756;DHT22;1893;52.526;13.360;2023-08-06T14:30:07;17.00;99.90
3756;DHT22;1893;52.526;13.360;2023-08-06T14:32:33;16.90;99.90
3756;DHT22;1893;52.526;13.360;2023-08-06T14:34:59;16.90;99.90
3756;DHT22;1893;52.526;13.360;2023-08-06T14:37:24;16.70;99.90
3756;DHT22;1893;52.526;13.360;2023-08-06T14:39:51;16.70;99.90
3756;DHT22;1893;52.526;13.360;2023-08-06T14:42:17;16.70;99.90
3756;DHT22;1893;52.526;13.360;2023-08-06T14:44:43;16.80;99.90
3756;DHT22;1893;52.526;13.360;2023-08-06T14:47:09;16.70;99.90
3756;DHT22;1893;52.526;13.360;2023-08-06T14:49:35;16.80;99.90
3756;DHT22;1893;52.526;13.360;2023-08-06T14:52:00;16.90;99.90
3756;DHT22;1893;52.526;13.360;2023-08-06T14:54:27;16.90;99.90
3756;DHT22;1893;52.526;13.360;2023-08-06T14:56:53;16.90;99.90
3756;DHT22;1893;52.526;13.360;2023-08-06T14:59:18;16.90;99.90
3756;DHT22;1893;52.526;13.360;2023-08-06T15:01:44;16.90;99.90
3756;DHT22;1893;52.526;13.360;2023-08-06T15:04:10;17.00;99.90
3756;DHT22;1893;52.526;13.360;2023-08-06T15:06:35;17.00;99.90
3756;DHT22;1893;52.526;13.360;2023-08-06T15:09:01;17.00;99.90
3756;DHT22;1893;52.526;13.360;2023-08-06T15:11:27;17.00;99.90
3756;DHT22;1893;52.526;13.360;2023-08-06T15:13:52;17.00;99.90
3756;DHT22;1893;52.526;13.360;2023-08-06T15:16:18;17.10;99.90
3756;DHT22;1893;52.526;13.360;2023-08-06T15:18:44;17.00;99.90
3756;DHT22;1893;52.526;13.360;2023-08-06T15:21:10;17.10;99.90
3756;DHT22;1893;52.526;13.360;2023-08-06T15:23:35;17.10;99.90
3756;DHT22;1893;52.526;13.360;2023-08-06T15:26:02;17.00;99.90
3756;DHT22;1893;52.526;13.360;2023-08-06T15:28:28;17.00;99.90
3756;DHT22;1893;52.526;13.360;2023-08-06T15:30:54;17.00;99.90
3756;DHT22;1893;52.526;13.360;2023-08-06T15:33:20;16.90;99.90
3756;DHT22;1893;52.526;13.360;2023-08-06T15:35:46;16.80;99.90
3756;DHT22;1893;52.526;13.360;2023-08-06T15:38:11;16.90;99.90
3756;DHT22;1893;52.526;13.360;2023-08-06T15:40:37;16.80;99.90
3756;DHT22;1893;52.526;13.360;2023-08-06T15:43:03;16.70;99.90
3756;DHT22;1893;52.526;13.360;2023-08-06T15:45:28;16.80;99.90
3756;DHT22;1893;52.526;13.360;2023-08-06T15:47:54;16.80;99.90